Time;durP1;ratioP1;P1;durP2;ratioP2;P2;SDS_P1;SDS_P2;PMS_P1;PMS_P2;Temp;Humidity;BMP_temperature;BMP_pressure;BME280_temperature;BME280_humidity;BME280_pressure;Samples;Min_cycle;Max_cycle;Signal;HPM_P1;HPM_P2
2023/12/19 00:01:18;;;;;;;54.72;25.30;;;;;;;;;;2085724;28;20476;-79
2023/12/19 00:02:39;;;;;;;49.25;23.25;;;;;;;;;;2090048;28;20028;-79
2023/12/19 00:04:01;;;;;;;52.33;25.90;;;;;;;;;;2088015;28;20543;-78
2023/12/19 00:05:22;;;;;;;53.13;22.63;;;;;;;;;;2089784;28;20033;-78
2023/12/19 00:06:42;;;;;;;54.53;23.48;;;;;;;;;;2089265;28;20438;-78
2023/12/19 00:08:03;;;;;;;49.38;25.48;;;;;;;;;;2085148;28;20048;-78
2023/12/19 00:09:25;;;;;;;49.15;24.92;;;;;;;;;;2086333;28;20029;-78
2023/12/19 00:10:46;;;;;;;56.35;27.88;;;;;;;;;;2088916;28;20033;-78
2023/12/19 00:12:08;;;;;;;46.43;23.97;;;;;;;;;;2090490;28;20033;-80
2023/12/19 00:13:29;;;;;;;53.08;26.05;;;;;;;;;;2089666;28;20433;-78
2023/12/19 00:14:50;;;;;;;47.60;21.77;;;;;;;;;;2083587;28;20400;-78
2023/12/19 00:16:11;;;;;;;52.33;27.30;;;;;;;;;;2083209;28;20136;-78
2023/12/19 00:17:31;;;;;;;45.95;23.25;;;;;;;;;;2083675;28;20021;-78
2023/12/19 00:18:52;;;;;;;55.97;27.67;;;;;;;;;;2086583;28;20029;-78
2023/12/19 00:20:13;;;;;;;52.33;23.50;;;;;;;;;;2087264;28;20029;-78
2023/12/19 00:21:34;;;;;;;61.00;25.52;;;;;;;;;;2088328;28;20037;-78
2023/12/19 00:22:55;;;;;;;51.60;26.33;;;;;;;;;;2095211;28;20052;-78
2023/12/19 00:24:16;;;;;;;49.78;23.70;;;;;;;;;;2088275;28;20124;-79
2023/12/19 00:25:37;;;;;;;48.65;22.90;;;;;;;;;;2082100;28;20025;-78
2023/12/19 00:26:58;;;;;;;56.63;27.42;;;;;;;;;;2086844;28;20045;-78
2023/12/19 00:28:19;;;;;;;58.55;25.92;;;;;;;;;;2090233;28;20074;-76
2023/12/19 00:29:39;;;;;;;50.50;25.80;;;;;;;;;;2091707;28;20025;-79
2023/12/19 00:31:00;;;;;;;54.72;22.98;;;;;;;;;;2088035;28;20599;-79
2023/12/19 00:32:21;;;;;;;47.22;22.23;;;;;;;;;;2093269;28;20033;-79
2023/12/19 00:33:42;;;;;;;59.30;28.33;;;;;;;;;;2088233;28;20036;-78
2023/12/19 00:35:03;;;;;;;51.60;25.67;;;;;;;;;;2085005;28;21011;-78
2023/12/19 00:36:24;;;;;;;53.35;23.95;;;;;;;;;;2089259;28;20044;-79
2023/12/19 00:37:45;;;;;;;54.10;24.10;;;;;;;;;;2091955;28;20428;-78
2023/12/19 00:39:06;;;;;;;55.05;23.90;;;;;;;;;;2095937;28;20086;-79
2023/12/19 00:40:27;;;;;;;55.00;25.05;;;;;;;;;;2090958;28;20036;-78
2023/12/19 00:41:48;;;;;;;50.63;24.70;;;;;;;;;;2095412;28;20028;-79
2023/12/19 00:43:09;;;;;;;53.45;26.45;;;;;;;;;;2096677;28;20484;-79
2023/12/19 00:44:29;;;;;;;51.13;23.23;;;;;;;;;;2097976;28;20040;-79
2023/12/19 00:45:50;;;;;;;55.05;25.30;;;;;;;;;;2094404;28;20025;-78
2023/12/19 00:47:11;;;;;;;58.47;27.20;;;;;;;;;;2093797;28;20049;-79
2023/12/19 00:48:32;;;;;;;45.63;22.45;;;;;;;;;;2098261;28;20029;-79
2023/12/19 00:49:53;;;;;;;46.85;22.40;;;;;;;;;;2099317;28;20090;-79
2023/12/19 00:51:14;;;;;;;52.03;24.67;;;;;;;;;;2089770;28;20393;-79
2023/12/19 00:52:35;;;;;;;59.17;27.35;;;;;;;;;;2093151;28;20036;-79
2023/12/19 00:53:56;;;;;;;50.00;23.88;;;;;;;;;;2096854;28;20102;-79
2023/12/19 00:55:17;;;;;;;42.25;21.25;;;;;;;;;;2096856;28;20028;-78
2023/12/19 00:56:40;;;;;;;51.58;23.05;;;;;;;;;;2091304;28;20089;-78
2023/12/19 00:58:01;;;;;;;51.60;25.08;;;;;;;;;;2085757;28;20033;-78
2023/12/19 00:59:22;;;;;;;57.88;28.55;;;;;;;;;;2103441;28;20106;-79
2023/12/19 01:00:43;;;;;;;55.17;22.45;;;;;;;;;;2094539;28;20040;-78
2023/12/19 01:02:04;;;;;;;50.10;22.38;;;;;;;;;;2088334;28;20041;-78
2023/12/19 01:03:25;;;;;;;50.78;23.02;;;;;;;;;;2088293;28;20029;-78
2023/12/19 01:04:46;;;;;;;56.15;25.20;;;;;;;;;;2093264;28;20059;-76
2023/12/19 01:06:07;;;;;;;61.60;24.90;;;;;;;;;;2086680;28;20072;-76
2023/12/19 01:07:27;;;;;;;63.75;28.33;;;;;;;;;;2089106;28;20080;-77
2023/12/19 01:08:49;;;;;;;45.95;21.13;;;;;;;;;;2094493;28;20025;-78
2023/12/19 01:10:10;;;;;;;58.83;29.73;;;;;;;;;;2089291;28;20044;-77
2023/12/19 01:11:31;;;;;;;48.85;23.45;;;;;;;;;;2094583;28;20036;-78
2023/12/19 01:12:52;;;;;;;48.05;24.88;;;;;;;;;;2096941;28;20435;-79
2023/12/19 01:14:12;;;;;;;51.63;24.17;;;;;;;;;;2088386;28;20131;-78
2023/12/19 01:15:33;;;;;;;52.58;22.70;;;;;;;;;;2083189;28;20098;-79
2023/12/19 01:16:54;;;;;;;58.50;24.42;;;;;;;;;;2094547;28;20154;-79
2023/12/19 01:18:15;;;;;;;56.80;24.50;;;;;;;;;;2086648;28;20037;-77
2023/12/19 01:19:37;;;;;;;54.45;23.90;;;;;;;;;;2091986;28;20073;-77
2023/12/19 01:20:58;;;;;;;54.38;24.50;;;;;;;;;;2086915;28;20032;-77
2023/12/19 01:22:18;;;;;;;53.20;24.52;;;;;;;;;;2083539;28;20742;-77
2023/12/19 01:23:39;;;;;;;48.17;22.23;;;;;;;;;;2089158;28;20048;-77
2023/12/19 01:25:00;;;;;;;57.58;24.65;;;;;;;;;;2086421;28;20029;-77
2023/12/19 01:26:21;;;;;;;57.38;26.95;;;;;;;;;;2092344;28;20029;-77
2023/12/19 01:27:42;;;;;;;58.70;25.25;;;;;;;;;;2102912;28;20020;-76
2023/12/19 01:29:03;;;;;;;66.47;27.02;;;;;;;;;;2101021;28;20081;-77
2023/12/19 01:30:24;;;;;;;56.30;24.83;;;;;;;;;;2097046;28;20094;-76
2023/12/19 01:31:45;;;;;;;65.88;26.90;;;;;;;;;;2091159;28;20020;-76
2023/12/19 01:33:07;;;;;;;46.35;24.00;;;;;;;;;;2090451;28;20420;-77
2023/12/19 01:34:28;;;;;;;57.85;26.30;;;;;;;;;;2090843;28;20025;-77
2023/12/19 01:35:49;;;;;;;60.80;25.17;;;;;;;;;;2095502;28;20508;-77
2023/12/19 01:37:09;;;;;;;60.08;28.05;;;;;;;;;;2094474;28;20036;-77
2023/12/19 01:38:30;;;;;;;56.75;25.50;;;;;;;;;;2096075;28;20028;-77
2023/12/19 01:39:51;;;;;;;56.55;24.95;;;;;;;;;;2094535;28;20084;-76
2023/12/19 01:41:12;;;;;;;59.42;25.95;;;;;;;;;;2094584;28;20028;-77
2023/12/19 01:42:33;;;;;;;52.00;23.33;;;;;;;;;;2091797;28;20021;-77
2023/12/19 01:44:00;;;;;;;51.67;24.85;;;;;;;;;;2098860;28;20032;-77
2023/12/19 01:45:22;;;;;;;58.20;23.48;;;;;;;;;;2100291;28;20081;-77
2023/12/19 01:46:43;;;;;;;52.25;23.33;;;;;;;;;;2102041;28;20032;-77
2023/12/19 01:48:04;;;;;;;58.83;26.55;;;;;;;;;;2102608;28;20054;-75
2023/12/19 01:49:25;;;;;;;51.20;23.77;;;;;;;;;;2100998;28;20384;-77
2023/12/19 01:50:47;;;;;;;66.20;28.35;;;;;;;;;;2093142;28;20024;-78
2023/12/19 01:52:08;;;;;;;52.42;21.75;;;;;;;;;;2089141;28;20100;-77
2023/12/19 01:53:29;;;;;;;63.80;25.75;;;;;;;;;;2091166;28;20032;-77
2023/12/19 01:54:50;;;;;;;52.90;24.20;;;;;;;;;;2090721;28;20420;-77
2023/12/19 01:56:12;;;;;;;59.05;28.27;;;;;;;;;;2099455;28;20085;-77
2023/12/19 01:57:33;;;;;;;50.30;22.92;;;;;;;;;;2095483;28;20082;-77
2023/12/19 01:58:54;;;;;;;45.80;22.25;;;;;;;;;;2097341;28;20036;-78
2023/12/19 02:00:15;;;;;;;54.20;24.33;;;;;;;;;;2090607;28;20041;-77
2023/12/19 02:01:36;;;;;;;54.35;23.25;;;;;;;;;;2085222;28;20032;-78
2023/12/19 02:02:57;;;;;;;65.40;29.30;;;;;;;;;;2086300;28;20029;-77
2023/12/19 02:04:18;;;;;;;59.80;28.35;;;;;;;;;;2083436;28;20449;-76
2023/12/19 02:05:41;;;;;;;62.38;25.63;;;;;;;;;;2083569;28;20045;-77
2023/12/19 02:07:02;;;;;;;54.00;22.30;;;;;;;;;;2098138;28;20033;-77
2023/12/19 02:08:22;;;;;;;74.25;28.88;;;;;;;;;;2099361;28;20418;-77
2023/12/19 02:09:43;;;;;;;47.08;23.05;;;;;;;;;;2097506;28;20032;-77
2023/12/19 02:11:04;;;;;;;51.85;22.65;;;;;;;;;;2097588;28;20021;-77
2023/12/19 02:12:25;;;;;;;57.10;24.60;;;;;;;;;;2094183;28;20032;-77
2023/12/19 02:13:46;;;;;;;55.27;23.80;;;;;;;;;;2088452;28;20521;-77
2023/12/19 02:15:08;;;;;;;59.10;23.30;;;;;;;;;;2085764;28;20893;-77
2023/12/19 02:16:29;;;;;;;67.50;26.30;;;;;;;;;;2090634;28;20033;-77
2023/12/19 02:17:50;;;;;;;63.85;25.58;;;;;;;;;;2090962;28;20668;-77
2023/12/19 02:19:13;;;;;;;63.10;28.30;;;;;;;;;;2091825;28;20024;-77
2023/12/19 02:20:34;;;;;;;54.13;24.35;;;;;;;;;;2095002;28;20032;-78
2023/12/19 02:21:55;;;;;;;60.10;26.65;;;;;;;;;;2093714;28;20037;-77
2023/12/19 02:23:16;;;;;;;56.00;24.92;;;;;;;;;;2089879;28;20098;-77
2023/12/19 02:24:37;;;;;;;59.13;25.65;;;;;;;;;;2093595;28;20113;-77
2023/12/19 02:25:57;;;;;;;50.45;23.40;;;;;;;;;;2092747;28;20048;-79
2023/12/19 02:27:22;;;;;;;51.03;23.15;;;;;;;;;;2095060;28;20082;-79
2023/12/19 02:28:43;;;;;;;68.72;29.08;;;;;;;;;;2094729;28;20028;-79
2023/12/19 02:30:04;;;;;;;64.10;27.92;;;;;;;;;;2095219;28;20445;-77
2023/12/19 02:31:25;;;;;;;52.90;23.42;;;;;;;;;;2091688;28;20037;-77
2023/12/19 02:32:47;;;;;;;52.15;24.20;;;;;;;;;;2094318;28;20029;-78
2023/12/19 02:34:08;;;;;;;56.35;27.13;;;;;;;;;;2091565;28;20029;-76
2023/12/19 02:35:29;;;;;;;58.72;25.10;;;;;;;;;;2088487;28;20446;-77
2023/12/19 02:36:50;;;;;;;57.92;24.20;;;;;;;;;;2092553;28;20048;-77
2023/12/19 02:38:11;;;;;;;55.97;25.38;;;;;;;;;;2092298;28;20033;-80
2023/12/19 02:39:32;;;;;;;59.35;24.85;;;;;;;;;;2095245;28;20044;-77
2023/12/19 02:40:52;;;;;;;58.03;26.45;;;;;;;;;;2095007;28;20510;-76
2023/12/19 02:42:13;;;;;;;62.90;27.30;;;;;;;;;;2094746;28;20044;-76
2023/12/19 02:43:34;;;;;;;59.90;24.13;;;;;;;;;;2090676;28;20090;-79
2023/12/19 02:44:55;;;;;;;60.58;25.17;;;;;;;;;;2091437;28;20396;-79
2023/12/19 02:46:16;;;;;;;59.45;26.20;;;;;;;;;;2091224;28;20029;-78
2023/12/19 02:47:37;;;;;;;51.63;23.83;;;;;;;;;;2093097;28;20091;-79
2023/12/19 02:48:58;;;;;;;48.58;22.42;;;;;;;;;;2095419;28;20448;-79
2023/12/19 02:50:19;;;;;;;61.60;26.27;;;;;;;;;;2095469;28;20029;-77
2023/12/19 02:51:40;;;;;;;53.08;23.05;;;;;;;;;;2094089;28;20025;-79
2023/12/19 02:53:01;;;;;;;55.85;23.30;;;;;;;;;;2094571;28;20033;-79
2023/12/19 02:54:22;;;;;;;52.28;23.02;;;;;;;;;;2089005;28;20032;-79
2023/12/19 02:55:43;;;;;;;61.92;25.10;;;;;;;;;;2090537;28;20516;-78
2023/12/19 02:57:04;;;;;;;57.85;24.83;;;;;;;;;;2096000;28;20123;-78
2023/12/19 02:58:25;;;;;;;59.67;26.35;;;;;;;;;;2087134;28;20037;-78
2023/12/19 02:59:45;;;;;;;57.13;23.67;;;;;;;;;;2091412;28;20377;-79
2023/12/19 03:01:06;;;;;;;56.75;26.73;;;;;;;;;;2093843;28;20055;-78
2023/12/19 03:02:27;;;;;;;55.03;22.38;;;;;;;;;;2104471;28;20050;-78
2023/12/19 03:03:48;;;;;;;45.22;21.13;;;;;;;;;;2087166;28;20029;-79
2023/12/19 03:05:09;;;;;;;55.80;23.27;;;;;;;;;;2091827;28;20106;-76
2023/12/19 03:06:30;;;;;;;50.45;22.25;;;;;;;;;;2103800;28;20032;-77
2023/12/19 03:07:51;;;;;;;54.13;23.33;;;;;;;;;;2078490;28;20508;-76
2023/12/19 03:09:12;;;;;;;46.92;22.67;;;;;;;;;;2084261;28;20055;-79
2023/12/19 03:10:33;;;;;;;58.40;23.33;;;;;;;;;;2086980;28;20032;-79
2023/12/19 03:11:59;;;;;;;44.45;21.05;;;;;;;;;;2087053;28;20021;-79
2023/12/19 03:13:20;;;;;;;51.83;21.88;;;;;;;;;;2082499;28;21433;-76
2023/12/19 03:14:40;;;;;;;54.13;24.88;;;;;;;;;;2077313;28;20029;-77
2023/12/19 03:16:01;;;;;;;48.03;20.63;;;;;;;;;;2085831;28;20455;-77
2023/12/19 03:17:22;;;;;;;63.05;27.40;;;;;;;;;;2088931;28;20055;-78
2023/12/19 03:18:43;;;;;;;50.35;22.60;;;;;;;;;;2096311;28;20025;-78
2023/12/19 03:20:05;;;;;;;44.03;21.27;;;;;;;;;;2094944;28;20364;-78
2023/12/19 03:21:26;;;;;;;62.17;26.35;;;;;;;;;;2101054;28;20040;-79
2023/12/19 03:22:47;;;;;;;52.17;20.77;;;;;;;;;;2092488;28;20475;-78
2023/12/19 03:24:08;;;;;;;52.90;23.65;;;;;;;;;;2091764;28;20128;-78
2023/12/19 03:25:29;;;;;;;44.58;21.15;;;;;;;;;;2091748;28;20097;-79
2023/12/19 03:26:50;;;;;;;52.88;21.70;;;;;;;;;;2092047;28;20086;-78
2023/12/19 03:28:11;;;;;;;54.20;27.13;;;;;;;;;;2098739;28;20407;-77
2023/12/19 03:29:32;;;;;;;58.00;23.65;;;;;;;;;;2095915;28;20036;-78
2023/12/19 03:30:53;;;;;;;58.83;23.92;;;;;;;;;;2092641;28;20028;-78
2023/12/19 03:32:14;;;;;;;57.42;24.67;;;;;;;;;;2096755;28;20020;-79
2023/12/19 03:33:35;;;;;;;50.95;21.25;;;;;;;;;;2102715;28;20123;-79
2023/12/19 03:34:56;;;;;;;56.38;24.50;;;;;;;;;;2097359;28;20357;-78
2023/12/19 03:36:17;;;;;;;53.60;23.08;;;;;;;;;;2099400;28;20086;-79
2023/12/19 03:37:39;;;;;;;53.80;24.60;;;;;;;;;;2091622;28;20339;-78
2023/12/19 03:39:00;;;;;;;49.88;23.65;;;;;;;;;;2099071;28;20418;-78
2023/12/19 03:40:21;;;;;;;54.08;23.48;;;;;;;;;;2098289;28;20036;-79
2023/12/19 03:41:42;;;;;;;53.88;22.52;;;;;;;;;;2095633;28;20905;-79
2023/12/19 03:43:03;;;;;;;47.55;19.83;;;;;;;;;;2094002;28;20147;-78
2023/12/19 03:44:24;;;;;;;48.10;22.60;;;;;;;;;;2093004;28;20029;-80
2023/12/19 03:45:45;;;;;;;48.20;22.40;;;;;;;;;;2091906;28;20695;-78
2023/12/19 03:47:05;;;;;;;47.08;21.50;;;;;;;;;;2092736;28;20032;-78
2023/12/19 03:48:27;;;;;;;58.05;24.63;;;;;;;;;;2095163;28;20078;-79
2023/12/19 03:49:48;;;;;;;61.22;26.35;;;;;;;;;;2095834;28;20078;-78
2023/12/19 03:51:09;;;;;;;45.45;20.63;;;;;;;;;;2093423;28;20443;-78
2023/12/19 03:52:29;;;;;;;47.92;19.60;;;;;;;;;;2095774;28;20040;-80
2023/12/19 03:53:50;;;;;;;46.88;21.83;;;;;;;;;;2097813;28;20084;-79
2023/12/19 03:55:11;;;;;;;43.22;20.70;;;;;;;;;;2089897;28;20029;-79
2023/12/19 03:56:32;;;;;;;57.22;22.42;;;;;;;;;;2087044;28;20041;-79
2023/12/19 03:57:53;;;;;;;46.03;21.83;;;;;;;;;;2100573;28;20040;-80
2023/12/19 03:59:14;;;;;;;44.55;21.55;;;;;;;;;;2098736;28;20512;-81
2023/12/19 04:00:35;;;;;;;45.67;21.02;;;;;;;;;;2097698;28;20036;-79
2023/12/19 04:01:58;;;;;;;58.63;26.23;;;;;;;;;;2098061;28;20032;-80
2023/12/19 04:03:19;;;;;;;43.28;19.90;;;;;;;;;;2087775;28;20095;-80
2023/12/19 04:04:40;;;;;;;43.00;20.42;;;;;;;;;;2100561;28;20032;-80
2023/12/19 04:06:00;;;;;;;46.78;19.70;;;;;;;;;;2096661;28;20020;-80
2023/12/19 04:07:21;;;;;;;49.03;22.17;;;;;;;;;;2094405;28;20106;-78
2023/12/19 04:08:42;;;;;;;47.88;21.17;;;;;;;;;;2094490;28;20067;-80
2023/12/19 04:10:03;;;;;;;51.30;22.02;;;;;;;;;;2098839;28;20037;-79
2023/12/19 04:11:24;;;;;;;47.55;23.35;;;;;;;;;;2093543;28;20033;-80
2023/12/19 04:12:45;;;;;;;48.28;22.63;;;;;;;;;;2097188;28;20021;-79
2023/12/19 04:14:06;;;;;;;47.28;21.45;;;;;;;;;;2097656;28;20020;-79
2023/12/19 04:15:27;;;;;;;47.78;21.23;;;;;;;;;;2095268;28;20028;-81
2023/12/19 04:16:48;;;;;;;44.00;20.75;;;;;;;;;;2094246;28;20077;-79
2023/12/19 04:18:10;;;;;;;42.00;17.80;;;;;;;;;;2102902;28;20044;-80
2023/12/19 04:19:31;;;;;;;54.60;22.20;;;;;;;;;;2095052;28;20090;-80
2023/12/19 04:20:52;;;;;;;66.25;30.13;;;;;;;;;;2095625;28;20029;-81
2023/12/19 04:22:12;;;;;;;57.60;23.23;;;;;;;;;;2096748;28;20098;-79
2023/12/19 04:23:34;;;;;;;53.20;22.88;;;;;;;;;;2098977;28;20677;-79
2023/12/19 04:24:55;;;;;;;51.23;22.50;;;;;;;;;;2096272;28;20029;-79
2023/12/19 04:26:19;;;;;;;50.90;22.63;;;;;;;;;;2098762;28;20976;-79
2023/12/19 04:27:40;;;;;;;61.53;26.48;;;;;;;;;;2093602;28;20048;-78
2023/12/19 04:29:01;;;;;;;50.83;22.83;;;;;;;;;;2091742;28;20657;-80
2023/12/19 04:30:22;;;;;;;59.67;26.42;;;;;;;;;;2093679;28;20448;-81
2023/12/19 04:31:43;;;;;;;71.70;30.83;;;;;;;;;;2093683;28;20025;-80
2023/12/19 04:33:04;;;;;;;57.45;24.27;;;;;;;;;;2095745;28;20497;-81
2023/12/19 04:34:25;;;;;;;69.32;28.15;;;;;;;;;;2095426;28;20083;-80
2023/12/19 04:35:49;;;;;;;58.72;25.33;;;;;;;;;;2091464;28;20393;-81
2023/12/19 04:37:10;;;;;;;75.10;28.38;;;;;;;;;;2099077;28;20033;-81
2023/12/19 04:38:30;;;;;;;79.03;31.50;;;;;;;;;;2098858;28;20078;-80
2023/12/19 04:39:52;;;;;;;71.75;25.10;;;;;;;;;;2094319;28;20072;-80
2023/12/19 04:41:12;;;;;;;81.22;33.35;;;;;;;;;;2094002;28;20165;-80
2023/12/19 04:42:33;;;;;;;65.22;25.80;;;;;;;;;;2095225;28;20094;-81
2023/12/19 04:43:54;;;;;;;66.97;27.10;;;;;;;;;;2091580;28;21000;-79
2023/12/19 04:45:15;;;;;;;78.15;28.13;;;;;;;;;;2095388;28;20036;-80
2023/12/19 04:46:36;;;;;;;59.00;27.00;;;;;;;;;;2095134;28;20553;-80
2023/12/19 04:47:57;;;;;;;72.10;28.00;;;;;;;;;;2091684;28;20067;-79
2023/12/19 04:49:18;;;;;;;66.55;25.75;;;;;;;;;;2092042;28;20040;-78
2023/12/19 04:50:39;;;;;;;61.90;24.80;;;;;;;;;;2093606;28;20036;-80
2023/12/19 04:52:00;;;;;;;66.45;27.55;;;;;;;;;;2093206;28;20029;-81
2023/12/19 04:53:20;;;;;;;67.80;26.13;;;;;;;;;;2095660;28;20105;-82
2023/12/19 04:54:41;;;;;;;71.70;29.75;;;;;;;;;;2092886;28;20094;-81
2023/12/19 04:56:03;;;;;;;68.35;27.13;;;;;;;;;;2092324;28;20037;-81
2023/12/19 04:57:24;;;;;;;65.78;27.15;;;;;;;;;;2093488;28;20047;-79
2023/12/19 04:58:46;;;;;;;65.20;27.85;;;;;;;;;;2098069;28;20514;-81
2023/12/19 05:00:07;;;;;;;63.55;24.95;;;;;;;;;;2093616;28;20439;-81
2023/12/19 05:01:28;;;;;;;75.78;30.45;;;;;;;;;;2094323;28;20090;-80
2023/12/19 05:02:49;;;;;;;72.45;26.77;;;;;;;;;;2093688;28;20108;-81
2023/12/19 05:04:09;;;;;;;78.75;30.83;;;;;;;;;;2095382;28;20176;-81
2023/12/19 05:05:31;;;;;;;66.43;25.52;;;;;;;;;;2097649;28;20512;-81
2023/12/19 05:06:53;;;;;;;79.07;33.08;;;;;;;;;;2094656;28;20082;-80
2023/12/19 05:08:15;;;;;;;72.63;26.48;;;;;;;;;;2085582;28;20076;-82
2023/12/19 05:09:36;;;;;;;;;;;;;;;;;;2088402;28;20094;-81
2023/12/19 05:10:56;;;;;;;63.20;24.35;;;;;;;;;;2085320;28;19913;-81
2023/12/19 05:12:17;;;;;;;80.28;32.42;;;;;;;;;;2087159;28;20435;-80
2023/12/19 05:13:38;;;;;;;65.43;29.08;;;;;;;;;;2084478;28;20044;-80
2023/12/19 05:14:59;;;;;;;66.40;28.80;;;;;;;;;;2082103;28;20029;-81
2023/12/19 05:16:20;;;;;;;66.45;27.13;;;;;;;;;;2083319;28;20099;-79
2023/12/19 05:17:41;;;;;;;51.67;26.05;;;;;;;;;;2074894;28;20046;-78
2023/12/19 05:19:03;;;;;;;66.93;27.48;;;;;;;;;;2084849;28;20159;-78
2023/12/19 05:20:25;;;;;;;77.55;33.25;;;;;;;;;;2082075;28;20049;-78
2023/12/19 05:21:46;;;;;;;51.40;23.35;;;;;;;;;;2087303;28;20041;-78
2023/12/19 05:23:06;;;;;;;60.97;24.77;;;;;;;;;;2078758;28;20025;-78
2023/12/19 05:24:32;;;;;;;62.58;23.80;;;;;;;;;;2085260;28;20032;-79
2023/12/19 05:25:53;;;;;;;72.60;31.13;;;;;;;;;;2083835;28;20036;-80
2023/12/19 05:27:14;;;;;;;58.63;26.38;;;;;;;;;;2076612;28;20046;-80
2023/12/19 05:28:35;;;;;;;77.53;33.67;;;;;;;;;;2074189;28;20041;-80
2023/12/19 05:29:56;;;;;;;79.10;35.17;;;;;;;;;;2076183;28;20350;-80
2023/12/19 05:31:18;;;;;;;71.82;31.05;;;;;;;;;;2075630;28;20564;-80
2023/12/19 05:32:39;;;;;;;58.38;23.63;;;;;;;;;;2081888;28;20392;-81
2023/12/19 05:34:00;;;;;;;56.72;25.50;;;;;;;;;;2079779;28;20029;-78
2023/12/19 05:35:23;;;;;;;69.63;31.83;;;;;;;;;;2084449;28;20029;-78
2023/12/19 05:36:46;;;;;;;71.57;29.75;;;;;;;;;;2076054;28;20087;-79
2023/12/19 05:38:07;;;;;;;68.82;26.67;;;;;;;;;;2075606;28;20053;-78
2023/12/19 05:39:28;;;;;;;59.22;24.95;;;;;;;;;;2075846;28;20056;-78
2023/12/19 05:40:51;;;;;;;55.47;24.98;;;;;;;;;;2083705;28;20033;-78
2023/12/19 05:42:12;;;;;;;64.55;27.85;;;;;;;;;;2082712;28;20285;-77
2023/12/19 05:43:33;;;;;;;63.15;24.88;;;;;;;;;;2086921;28;20025;-78
2023/12/19 05:44:54;;;;;;;67.43;29.60;;;;;;;;;;2074787;28;20263;-79
2023/12/19 05:46:15;;;;;;;56.75;25.77;;;;;;;;;;2076411;28;20080;-79
2023/12/19 05:47:39;;;;;;;69.22;27.58;;;;;;;;;;2073510;28;20767;-77
2023/12/19 05:49:00;;;;;;;67.78;30.38;;;;;;;;;;2084069;28;20033;-77
2023/12/19 05:50:21;;;;;;;58.55;25.15;;;;;;;;;;2072156;28;20037;-78
2023/12/19 05:51:42;;;;;;;52.88;25.77;;;;;;;;;;2078296;28;20438;-79
2023/12/19 05:53:03;;;;;;;73.18;33.50;;;;;;;;;;2077190;28;20049;-77
2023/12/19 05:54:24;;;;;;;51.60;23.60;;;;;;;;;;2077311;28;20041;-79
2023/12/19 05:55:45;;;;;;;58.47;24.38;;;;;;;;;;2079382;28;20025;-78
2023/12/19 05:57:06;;;;;;;62.63;30.05;;;;;;;;;;2072502;28;20080;-79
2023/12/19 05:58:26;;;;;;;64.50;27.23;;;;;;;;;;2085342;28;20105;-77
2023/12/19 05:59:47;;;;;;;58.65;24.20;;;;;;;;;;2079133;28;20127;-79
2023/12/19 06:01:08;;;;;;;65.75;26.33;;;;;;;;;;2086775;28;20036;-78
2023/12/19 06:02:29;;;;;;;61.97;24.30;;;;;;;;;;2084684;28;20092;-78
2023/12/19 06:03:50;;;;;;;78.82;30.10;;;;;;;;;;2083535;28;20041;-78
2023/12/19 06:05:11;;;;;;;68.70;29.33;;;;;;;;;;2088571;28;20025;-78
2023/12/19 06:06:34;;;;;;;67.20;28.17;;;;;;;;;;2089454;28;20032;-79
2023/12/19 06:07:57;;;;;;;58.67;24.85;;;;;;;;;;2096876;28;20049;-79
2023/12/19 06:09:18;;;;;;;61.83;27.23;;;;;;;;;;2102735;28;20025;-81
2023/12/19 06:10:39;;;;;;;62.88;28.45;;;;;;;;;;2095560;28;20318;-79
2023/12/19 06:11:59;;;;;;;53.15;25.55;;;;;;;;;;2093805;28;20031;-79
2023/12/19 06:13:20;;;;;;;62.00;29.58;;;;;;;;;;2086251;28;20032;-78
2023/12/19 06:14:41;;;;;;;65.47;29.20;;;;;;;;;;2095511;28;20023;-78
2023/12/19 06:16:03;;;;;;;63.53;27.95;;;;;;;;;;2102092;28;20056;-79
2023/12/19 06:17:24;;;;;;;66.50;32.13;;;;;;;;;;2095299;28;20040;-78
2023/12/19 06:18:45;;;;;;;56.95;27.27;;;;;;;;;;2080536;28;20530;-77
2023/12/19 06:20:06;;;;;;;61.10;26.30;;;;;;;;;;2082767;28;20167;-77
2023/12/19 06:21:27;;;;;;;58.20;23.88;;;;;;;;;;2093887;28;20036;-78
2023/12/19 06:22:48;;;;;;;51.15;24.98;;;;;;;;;;2096123;28;20531;-78
2023/12/19 06:24:09;;;;;;;59.53;27.25;;;;;;;;;;2087815;28;20080;-78
2023/12/19 06:25:31;;;;;;;53.60;24.35;;;;;;;;;;2087922;28;20127;-78
2023/12/19 06:26:53;;;;;;;62.50;31.42;;;;;;;;;;2084681;28;20445;-79
2023/12/19 06:28:16;;;;;;;53.38;24.45;;;;;;;;;;2099858;28;20419;-77
2023/12/19 06:29:37;;;;;;;62.67;31.13;;;;;;;;;;2101730;28;20035;-79
2023/12/19 06:30:57;;;;;;;48.28;25.35;;;;;;;;;;2102382;28;20024;-79
2023/12/19 06:32:18;;;;;;;57.17;25.77;;;;;;;;;;2100720;28;20112;-79
2023/12/19 06:33:39;;;;;;;65.32;27.85;;;;;;;;;;2092388;28;20032;-79
2023/12/19 06:35:02;;;;;;;54.03;27.20;;;;;;;;;;2098887;28;20502;-78
2023/12/19 06:36:22;;;;;;;;;;;;;;;;;;2100212;28;20078;-79
2023/12/19 06:37:44;;;;;;;43.83;21.38;;;;;;;;;;2091075;28;20442;-78
2023/12/19 06:39:06;;;;;;;53.28;27.50;;;;;;;;;;2089625;28;20480;-78
2023/12/19 06:40:27;;;;;;;52.85;24.52;;;;;;;;;;2091479;28;20059;-79
2023/12/19 06:41:48;;;;;;;60.28;29.80;;;;;;;;;;2089486;28;20139;-78
2023/12/19 06:43:10;;;;;;;56.85;29.00;;;;;;;;;;2083854;28;20037;-78
2023/12/19 06:44:31;;;;;;;49.78;23.63;;;;;;;;;;2086205;28;20388;-78
2023/12/19 06:45:52;;;;;;;56.25;26.40;;;;;;;;;;2093442;28;20036;-78
2023/12/19 06:47:14;;;;;;;57.78;26.98;;;;;;;;;;2095551;28;20048;-78
2023/12/19 06:48:35;;;;;;;54.28;27.75;;;;;;;;;;2094240;28;20044;-80
2023/12/19 06:49:56;;;;;;;52.53;23.23;;;;;;;;;;2091713;28;20043;-78
2023/12/19 06:51:26;;;;;;;50.28;26.23;;;;;;;;;;2085831;28;20411;-80
2023/12/19 06:52:47;;;;;;;55.13;24.63;;;;;;;;;;2086629;28;20067;-79
2023/12/19 06:54:08;;;;;;;54.17;24.67;;;;;;;;;;2093619;28;20102;-79
2023/12/19 06:55:30;;;;;;;48.25;24.08;;;;;;;;;;2092364;28;20033;-79
2023/12/19 06:56:51;;;;;;;47.22;24.80;;;;;;;;;;2093368;28;20040;-79
2023/12/19 06:58:12;;;;;;;51.08;24.60;;;;;;;;;;2096562;28;20403;-78
2023/12/19 06:59:33;;;;;;;60.33;25.27;;;;;;;;;;2095864;28;20032;-80
2023/12/19 07:00:54;;;;;;;51.00;26.20;;;;;;;;;;2092935;28;20044;-81
2023/12/19 07:02:15;;;;;;;53.28;25.20;;;;;;;;;;2094697;28;20041;-80
2023/12/19 07:03:36;;;;;;;51.58;24.45;;;;;;;;;;2096762;28;20090;-79
2023/12/19 07:04:58;;;;;;;53.17;25.35;;;;;;;;;;2092686;28;20427;-79
2023/12/19 07:06:19;;;;;;;54.55;26.02;;;;;;;;;;2093509;28;20037;-79
2023/12/19 07:07:40;;;;;;;51.53;24.55;;;;;;;;;;2092766;28;20548;-79
2023/12/19 07:09:01;;;;;;;53.08;29.83;;;;;;;;;;2100629;28;20063;-80
2023/12/19 07:10:22;;;;;;;46.85;24.75;;;;;;;;;;2094099;28;20395;-80
2023/12/19 07:11:43;;;;;;;53.72;27.25;;;;;;;;;;2091666;28;20021;-79
2023/12/19 07:13:04;;;;;;;46.05;23.83;;;;;;;;;;2099286;28;20495;-81
2023/12/19 07:14:25;;;;;;;43.90;22.70;;;;;;;;;;2103410;28;20028;-79
2023/12/19 07:15:46;;;;;;;46.17;24.05;;;;;;;;;;2102763;28;20032;-77
2023/12/19 07:17:07;;;;;;;47.63;25.55;;;;;;;;;;2102411;28;20032;-79
2023/12/19 07:18:28;;;;;;;44.67;23.17;;;;;;;;;;2101566;28;20059;-79
2023/12/19 07:19:49;;;;;;;43.38;19.98;;;;;;;;;;2102432;28;20093;-80
2023/12/19 07:21:20;;;;;;;45.38;23.00;;;;;;;;;;2094014;28;20039;-78
2023/12/19 07:22:41;;;;;;;46.80;24.85;;;;;;;;;;2101108;28;20510;-77
2023/12/19 07:24:02;;;;;;;53.35;31.17;;;;;;;;;;2096287;28;20036;-78
2023/12/19 07:25:23;;;;;;;44.97;23.92;;;;;;;;;;2098578;28;20078;-78
2023/12/19 07:26:44;;;;;;;41.97;20.38;;;;;;;;;;2094620;28;20503;-77
2023/12/19 07:28:05;;;;;;;44.75;23.05;;;;;;;;;;2096202;28;20120;-79
2023/12/19 07:29:26;;;;;;;46.30;24.05;;;;;;;;;;2087247;28;20056;-79
2023/12/19 07:30:47;;;;;;;39.40;22.00;;;;;;;;;;2085251;28;20090;-79
2023/12/19 07:32:08;;;;;;;52.00;23.85;;;;;;;;;;2086632;28;20029;-78
2023/12/19 07:33:29;;;;;;;45.65;24.42;;;;;;;;;;2095028;28;20029;-78
2023/12/19 07:34:50;;;;;;;42.22;21.58;;;;;;;;;;2095498;28;20088;-80
2023/12/19 07:36:12;;;;;;;44.97;22.48;;;;;;;;;;2096667;28;20036;-80
2023/12/19 07:37:32;;;;;;;55.03;24.98;;;;;;;;;;2094039;28;20043;-78
2023/12/19 07:38:53;;;;;;;42.58;21.40;;;;;;;;;;2093854;28;20032;-79
2023/12/19 07:40:14;;;;;;;45.65;24.73;;;;;;;;;;2094209;28;20028;-79
2023/12/19 07:41:35;;;;;;;46.22;26.30;;;;;;;;;;2100988;28;20531;-80
2023/12/19 07:42:56;;;;;;;42.97;22.35;;;;;;;;;;2097292;28;20083;-79
2023/12/19 07:44:17;;;;;;;58.83;29.02;;;;;;;;;;2095236;28;20033;-78
2023/12/19 07:45:38;;;;;;;41.10;22.75;;;;;;;;;;2099682;28;20455;-79
2023/12/19 07:46:59;;;;;;;49.70;27.75;;;;;;;;;;2109511;28;20035;-79
2023/12/19 07:48:20;;;;;;;51.88;25.63;;;;;;;;;;2091573;28;20048;-78
2023/12/19 07:49:41;;;;;;;55.33;28.05;;;;;;;;;;2093479;28;20373;-79
2023/12/19 07:51:02;;;;;;;47.15;27.92;;;;;;;;;;2097396;28;20033;-79
2023/12/19 07:52:23;;;;;;;44.35;23.85;;;;;;;;;;2103282;28;20016;-80
2023/12/19 07:53:44;;;;;;;48.45;25.85;;;;;;;;;;2096781;28;20162;-77